createdAt,value
2022-10-01T00:00:23.228Z,4.98
2022-10-01T00:01:47.881Z,7.16
2022-10-01T00:03:09.281Z,6.14
2022-10-01T00:04:30.216Z,7.01
2022-10-01T00:06:03.101Z,6.98
2022-10-01T00:07:24.227Z,6.28
2022-10-01T00:08:46.939Z,5.36
2022-10-01T00:10:10.228Z,7.60
2022-10-01T00:11:31.940Z,5.61
2022-10-01T00:12:53.695Z,4.71
2022-10-01T00:14:14.665Z,6.03
2022-10-01T00:15:38.476Z,6.52
2022-10-01T00:16:59.468Z,8.59
2022-10-01T00:18:20.739Z,8.00
2022-10-01T00:19:42.095Z,6.03
2022-10-01T00:21:11.197Z,7.12
2022-10-01T00:22:32.881Z,5.34
2022-10-01T00:25:12.008Z,5.01
2022-10-01T00:26:34.359Z,5.29
2022-10-01T00:27:55.442Z,6.01
2022-10-01T00:29:16.905Z,5.55
2022-10-01T00:30:42.133Z,6.31
2022-10-01T00:32:03.168Z,5.89
2022-10-01T00:33:24.459Z,5.09
2022-10-01T00:34:45.266Z,4.66
2022-10-01T00:36:07.506Z,6.11
2022-10-01T00:37:28.974Z,4.64
2022-10-01T00:38:49.810Z,7.26
2022-10-01T00:40:13.844Z,5.18
2022-10-01T00:41:35.390Z,4.56
2022-10-01T00:42:56.753Z,6.60
2022-10-01T00:44:36.391Z,4.09
2022-10-01T00:47:28.486Z,6.62
2022-10-01T00:49:02.025Z,7.83
2022-10-01T00:50:33.358Z,5.32
2022-10-01T00:51:58.957Z,6.61
2022-10-01T00:53:20.203Z,6.89
2022-10-01T00:55:55.767Z,10.66
2022-10-01T00:57:19.457Z,12.06
2022-10-01T00:58:40.690Z,13.10
2022-10-01T01:00:05.267Z,11.58
2022-10-01T01:01:27.510Z,13.94
2022-10-01T01:02:49.047Z,13.72
2022-10-01T01:04:10.191Z,14.49
2022-10-01T01:05:31.019Z,15.76
2022-10-01T01:06:56.973Z,14.28
2022-10-01T01:08:18.048Z,10.63
2022-10-01T01:09:41.214Z,10.26
2022-10-01T01:12:38.208Z,4.77
2022-10-01T01:14:04.022Z,6.40
2022-10-01T01:15:31.690Z,6.03
2022-10-01T01:16:59.228Z,8.08
2022-10-01T01:18:53.711Z,6.00
2022-10-01T01:20:25.432Z,8.07
2022-10-01T01:21:49.007Z,6.93
2022-10-01T01:23:19.871Z,9.43
2022-10-01T01:24:49.315Z,8.84
2022-10-01T01:26:15.536Z,9.09
2022-10-01T01:27:41.992Z,8.32
2022-10-01T01:29:11.941Z,8.26
2022-10-01T01:30:32.946Z,8.40
2022-10-01T01:31:56.690Z,7.78
2022-10-01T01:33:19.733Z,8.81
2022-10-01T01:34:42.416Z,9.90
2022-10-01T01:37:17.558Z,11.82
2022-10-01T01:39:52.977Z,7.99
2022-10-01T01:41:14.963Z,7.43
2022-10-01T01:42:37.200Z,6.56
2022-10-01T01:43:59.047Z,7.21
2022-10-01T01:45:25.020Z,6.83
2022-10-01T01:46:46.531Z,7.66
2022-10-01T01:48:07.755Z,7.69
2022-10-01T01:49:28.947Z,8.47
2022-10-01T01:51:05.819Z,6.84
2022-10-01T01:52:27.130Z,6.46
2022-10-01T01:53:48.266Z,7.33
2022-10-01T01:55:10.864Z,7.67
2022-10-01T01:57:52.716Z,6.16
2022-10-01T01:59:14.119Z,7.55
2022-10-01T02:00:35.575Z,6.82
2022-10-01T02:01:57.127Z,8.32
2022-10-01T02:03:19.853Z,7.91
2022-10-01T02:06:12.304Z,6.34
2022-10-01T02:07:46.548Z,7.38
2022-10-01T02:09:17.730Z,8.63
2022-10-01T02:10:54.584Z,7.09
2022-10-01T02:12:36.217Z,7.42
2022-10-01T02:15:57.874Z,6.94
2022-10-01T02:17:23.216Z,8.82
2022-10-01T02:19:18.396Z,7.59
2022-10-01T02:20:55.244Z,10.67
2022-10-01T02:22:21.593Z,6.26
2022-10-01T02:25:12.275Z,7.55
2022-10-01T02:26:41.813Z,8.53
2022-10-01T02:28:09.454Z,5.56
2022-10-01T02:29:36.444Z,10.48
2022-10-01T02:30:57.682Z,9.42
2022-10-01T02:32:19.073Z,7.60
2022-10-01T02:33:47.661Z,5.50
2022-10-01T02:35:12.155Z,10.05
2022-10-01T02:36:40.500Z,8.72
2022-10-01T02:38:02.916Z,8.52
2022-10-01T02:39:24.191Z,12.04
2022-10-01T02:40:45.624Z,10.21
2022-10-01T02:42:07.936Z,11.44
2022-10-01T02:43:31.949Z,10.38
2022-10-01T02:44:53.202Z,7.22
2022-10-01T02:47:38.913Z,9.84
2022-10-01T02:49:00.272Z,6.11
2022-10-01T02:50:22.617Z,6.78
2022-10-01T02:52:05.372Z,6.75
2022-10-01T02:54:52.293Z,8.07
2022-10-01T02:56:15.410Z,4.98
2022-10-01T02:57:36.794Z,7.02
2022-10-01T02:58:58.143Z,8.46
2022-10-01T03:00:19.504Z,10.91
2022-10-01T03:01:42.378Z,7.12
2022-10-01T03:03:03.653Z,8.86
2022-10-01T03:04:24.551Z,10.47
2022-10-01T03:05:45.421Z,8.99
2022-10-01T03:07:06.977Z,10.46
2022-10-01T03:08:28.313Z,7.28
2022-10-01T03:09:49.433Z,9.26
2022-10-01T03:11:10.841Z,8.99
2022-10-01T03:12:31.768Z,6.13
2022-10-01T03:13:53.316Z,8.87
2022-10-01T03:15:15.579Z,7.93
2022-10-01T03:16:37.155Z,12.42
2022-10-01T03:17:58.882Z,9.44
2022-10-01T03:19:20.190Z,7.19
2022-10-01T03:20:41.472Z,8.19
2022-10-01T03:22:03.752Z,11.07
2022-10-01T03:23:25.310Z,10.96
2022-10-01T03:24:46.411Z,7.56
2022-10-01T03:26:09.003Z,8.93
2022-10-01T03:27:30.036Z,11.63
2022-10-01T03:28:51.220Z,9.01
2022-10-01T03:30:16.677Z,8.12
2022-10-01T03:31:38.486Z,9.91
2022-10-01T03:34:09.357Z,9.58
2022-10-01T03:35:30.698Z,9.81
2022-10-01T03:36:52.356Z,9.00
2022-10-01T03:38:14.149Z,8.83
2022-10-01T03:39:35.795Z,8.41
2022-10-01T03:40:57.291Z,8.33
2022-10-01T03:42:18.613Z,10.06
2022-10-01T03:43:39.628Z,9.48
2022-10-01T03:45:00.945Z,8.98
2022-10-01T03:46:22.773Z,10.39
2022-10-01T03:47:44.159Z,8.81
2022-10-01T03:49:05.218Z,10.60
2022-10-01T03:50:26.490Z,11.43
2022-10-01T03:51:47.699Z,8.69
2022-10-01T03:53:09.153Z,9.43
2022-10-01T03:54:30.212Z,8.81
2022-10-01T03:55:51.994Z,7.89
2022-10-01T03:57:13.517Z,9.56
2022-10-01T03:58:35.115Z,10.94
2022-10-01T03:59:56.728Z,9.57
2022-10-01T04:01:18.007Z,11.62
2022-10-01T04:02:39.728Z,9.94
2022-10-01T04:04:01.402Z,9.31
2022-10-01T04:05:22.777Z,8.59
2022-10-01T04:06:44.242Z,8.39
2022-10-01T04:08:05.746Z,9.33
2022-10-01T04:09:27.339Z,9.90
2022-10-01T04:10:48.775Z,9.36
2022-10-01T04:12:10.147Z,10.99
2022-10-01T04:13:32.093Z,8.96
2022-10-01T04:14:53.392Z,9.98
2022-10-01T04:16:16.632Z,10.37
2022-10-01T04:17:39.942Z,10.26
2022-10-01T04:19:02.479Z,9.00
2022-10-01T04:20:23.429Z,11.17
2022-10-01T04:21:44.892Z,12.81
2022-10-01T04:23:06.139Z,11.74
2022-10-01T04:24:27.074Z,14.16
2022-10-01T04:25:47.996Z,12.54
2022-10-01T04:27:09.568Z,13.89
2022-10-01T04:28:31.156Z,14.27
2022-10-01T04:29:52.250Z,15.97
2022-10-01T04:31:14.185Z,10.89
2022-10-01T04:32:36.756Z,9.32
2022-10-01T04:35:10.411Z,10.55
2022-10-01T04:36:31.855Z,9.24
2022-10-01T04:39:16.707Z,7.88
2022-10-01T04:40:38.257Z,11.86
2022-10-01T04:41:59.544Z,11.33
2022-10-01T04:43:21.242Z,10.37
2022-10-01T04:44:42.445Z,12.91
2022-10-01T04:46:03.600Z,9.57
2022-10-01T04:47:25.100Z,11.25
2022-10-01T04:48:47.910Z,13.16
2022-10-01T04:50:12.173Z,12.21
2022-10-01T04:51:33.747Z,12.74
2022-10-01T04:52:55.030Z,11.50
2022-10-01T04:54:16.533Z,12.91
2022-10-01T04:55:38.029Z,13.33
2022-10-01T04:56:59.355Z,11.01
2022-10-01T04:58:20.513Z,13.93
2022-10-01T04:59:42.006Z,13.62
2022-10-01T05:01:03.048Z,11.63
2022-10-01T05:02:24.422Z,12.20
2022-10-01T05:03:45.675Z,14.72
2022-10-01T05:05:09.201Z,16.52
2022-10-01T05:06:31.032Z,10.52
2022-10-01T05:07:52.273Z,11.38
2022-10-01T05:09:13.418Z,9.96
2022-10-01T05:10:34.867Z,11.46
2022-10-01T05:11:56.810Z,15.42
2022-10-01T05:13:18.115Z,10.48
2022-10-01T05:14:39.637Z,13.03
2022-10-01T05:16:01.246Z,14.20
2022-10-01T05:17:22.485Z,13.07
2022-10-01T05:18:44.276Z,10.95
2022-10-01T05:20:08.473Z,9.41
2022-10-01T05:21:29.948Z,12.37
2022-10-01T05:22:51.239Z,10.59
2022-10-01T05:24:12.528Z,10.89
2022-10-01T05:25:33.862Z,12.11
2022-10-01T05:26:55.362Z,11.29
2022-10-01T05:28:21.937Z,12.66
2022-10-01T05:29:39.877Z,9.12
2022-10-01T05:31:03.736Z,9.29
2022-10-01T05:32:24.786Z,11.57
2022-10-01T05:33:45.733Z,10.12
2022-10-01T05:36:18.249Z,10.81
2022-10-01T05:37:39.867Z,11.42
2022-10-01T05:39:01.663Z,10.77
2022-10-01T05:40:23.385Z,9.53
2022-10-01T05:41:45.567Z,9.20
2022-10-01T05:43:08.476Z,10.87
2022-10-01T05:44:29.982Z,8.98
2022-10-01T05:45:51.096Z,11.02
2022-10-01T05:47:13.092Z,8.93
2022-10-01T05:48:34.246Z,11.47
2022-10-01T05:49:55.383Z,10.34
2022-10-01T05:51:16.980Z,9.08
2022-10-01T05:52:38.052Z,8.27
2022-10-01T05:53:59.627Z,9.07
2022-10-01T05:55:21.246Z,9.49
2022-10-01T05:56:42.742Z,10.02
2022-10-01T05:58:08.328Z,9.69
2022-10-01T06:00:39.782Z,9.37
2022-10-01T06:02:00.987Z,12.06
2022-10-01T06:03:22.698Z,10.23
2022-10-01T06:04:43.917Z,10.23
2022-10-01T06:06:05.265Z,10.17
2022-10-01T06:07:26.659Z,10.59
2022-10-01T06:08:47.763Z,9.47
2022-10-01T06:11:23.029Z,9.57
2022-10-01T06:12:44.299Z,9.71
2022-10-01T06:14:05.930Z,9.38
2022-10-01T06:15:28.097Z,8.66
2022-10-01T06:16:54.333Z,10.91
2022-10-01T06:18:15.410Z,7.97
2022-10-01T06:19:36.886Z,9.83
2022-10-01T06:20:58.080Z,12.08
2022-10-01T06:22:20.953Z,8.42
2022-10-01T06:23:42.319Z,9.20
2022-10-01T06:25:06.154Z,7.88
2022-10-01T06:26:27.809Z,7.61
2022-10-01T06:27:53.089Z,7.55
2022-10-01T06:29:14.549Z,6.80
2022-10-01T06:30:36.606Z,8.78
2022-10-01T06:31:59.870Z,8.11
2022-10-01T06:33:21.161Z,9.86
2022-10-01T06:35:55.021Z,7.36
2022-10-01T06:37:16.635Z,8.17
2022-10-01T06:38:38.167Z,8.20
2022-10-01T06:40:00.422Z,7.69
2022-10-01T06:41:21.478Z,7.15
2022-10-01T06:43:57.842Z,7.30
2022-10-01T06:45:19.575Z,8.06
2022-10-01T06:46:41.177Z,10.72
2022-10-01T06:48:02.841Z,7.23
2022-10-01T06:49:24.126Z,10.52
2022-10-01T06:50:45.879Z,9.38
2022-10-01T06:52:08.767Z,8.59
2022-10-01T06:53:30.005Z,9.53
2022-10-01T06:54:51.370Z,8.61
2022-10-01T06:56:13.958Z,7.32
2022-10-01T06:57:35.344Z,10.06
2022-10-01T06:58:57.127Z,8.79
2022-10-01T07:00:19.463Z,8.57
2022-10-01T07:01:41.167Z,9.51
2022-10-01T07:03:09.287Z,7.64
2022-10-01T07:04:30.729Z,7.64
2022-10-01T07:05:52.057Z,9.46
2022-10-01T07:07:13.208Z,10.18
2022-10-01T07:08:34.716Z,9.95
2022-10-01T07:09:57.327Z,11.83
2022-10-01T07:11:20.470Z,16.64
2022-10-01T07:12:41.540Z,22.02
2022-10-01T07:14:04.374Z,13.09
2022-10-01T07:15:25.798Z,12.66
2022-10-01T07:16:47.214Z,11.14
2022-10-01T07:18:08.580Z,12.64
2022-10-01T07:19:30.093Z,10.47
2022-10-01T07:20:51.597Z,10.90
2022-10-01T07:22:13.177Z,13.18
2022-10-01T07:23:34.870Z,7.98
2022-10-01T07:24:56.234Z,9.13
2022-10-01T07:26:17.704Z,10.46
2022-10-01T07:27:39.587Z,11.09
2022-10-01T07:29:02.304Z,7.96
2022-10-01T07:30:25.328Z,12.53
2022-10-01T07:31:47.013Z,11.77
2022-10-01T07:34:17.560Z,11.16
2022-10-01T07:35:39.233Z,12.98
2022-10-01T07:37:01.301Z,11.88
2022-10-01T07:38:22.448Z,13.22
2022-10-01T07:39:43.825Z,10.21
2022-10-01T07:41:05.735Z,7.82
2022-10-01T07:42:29.110Z,12.48
2022-10-01T07:43:50.193Z,15.04
2022-10-01T07:45:11.652Z,25.53
2022-10-01T07:46:34.840Z,18.33
2022-10-01T07:47:58.181Z,13.73
2022-10-01T07:49:19.789Z,12.86
2022-10-01T07:50:44.148Z,9.96
2022-10-01T07:52:08.592Z,11.25
2022-10-01T07:53:28.511Z,9.81
2022-10-01T07:54:50.040Z,11.64
2022-10-01T07:56:12.085Z,9.78
2022-10-01T07:57:33.201Z,10.06
2022-10-01T07:58:57.685Z,9.82
2022-10-01T08:00:19.577Z,10.29
2022-10-01T08:01:41.090Z,11.52
2022-10-01T08:03:02.663Z,14.39
2022-10-01T08:04:24.002Z,10.55
2022-10-01T08:05:45.506Z,9.47
2022-10-01T08:07:06.950Z,8.69
2022-10-01T08:08:30.032Z,9.13
2022-10-01T08:09:51.402Z,9.52
2022-10-01T08:11:12.559Z,7.45
2022-10-01T08:12:34.152Z,10.09
2022-10-01T08:13:55.571Z,6.71
2022-10-01T08:15:18.047Z,7.46
2022-10-01T08:16:39.265Z,7.27
2022-10-01T08:18:01.758Z,7.31
2022-10-01T08:19:22.940Z,6.49
2022-10-01T08:20:48.428Z,6.82
2022-10-01T08:22:10.730Z,6.84
2022-10-01T08:23:32.849Z,8.75
2022-10-01T08:24:54.596Z,9.94
2022-10-01T08:26:17.403Z,8.29
2022-10-01T08:27:39.158Z,7.77
2022-10-01T08:29:00.919Z,6.43
2022-10-01T08:30:22.677Z,6.71
2022-10-01T08:31:43.987Z,6.53
2022-10-01T08:33:04.955Z,7.96
2022-10-01T08:34:26.338Z,9.92
2022-10-01T08:35:47.966Z,10.11
2022-10-01T08:37:10.839Z,9.47
2022-10-01T08:38:31.960Z,9.94
2022-10-01T08:39:53.999Z,10.02
2022-10-01T08:42:47.850Z,12.71
2022-10-01T08:44:22.533Z,11.12
2022-10-01T08:45:52.943Z,11.68
2022-10-01T08:49:01.038Z,10.73
2022-10-01T08:50:42.001Z,11.69
2022-10-01T08:52:21.685Z,9.98
2022-10-01T08:54:09.338Z,11.95
2022-10-01T08:55:31.844Z,11.22
2022-10-01T08:56:56.511Z,8.88
2022-10-01T08:58:21.642Z,10.73
2022-10-01T08:59:48.880Z,6.20
2022-10-01T09:01:11.806Z,9.03
2022-10-01T09:02:35.143Z,8.70
2022-10-01T09:03:58.205Z,6.76
2022-10-01T09:05:26.682Z,6.94
2022-10-01T09:06:49.242Z,6.29
2022-10-01T09:08:14.309Z,7.26
2022-10-01T09:09:44.654Z,7.49
2022-10-01T09:11:07.184Z,5.62
2022-10-01T09:14:22.855Z,9.58
2022-10-01T09:17:40.199Z,5.11
2022-10-01T09:20:42.052Z,6.85
2022-10-01T09:23:28.874Z,5.71
2022-10-01T09:26:02.191Z,6.79
2022-10-01T09:27:26.189Z,7.96
2022-10-01T09:28:47.682Z,8.12
2022-10-01T09:30:13.602Z,6.03
2022-10-01T09:31:37.714Z,6.13
2022-10-01T09:34:15.414Z,5.47
2022-10-01T09:36:01.723Z,6.38
2022-10-01T09:37:26.990Z,6.87
2022-10-01T09:39:00.998Z,5.73
2022-10-01T09:41:53.298Z,4.71
2022-10-01T09:43:14.406Z,5.51
2022-10-01T09:44:35.628Z,4.96
2022-10-01T09:45:57.051Z,4.06
2022-10-01T09:47:20.335Z,6.49
2022-10-01T09:50:15.584Z,4.51
2022-10-01T09:51:43.762Z,4.52
2022-10-01T09:53:05.197Z,3.59
2022-10-01T09:54:33.128Z,4.03
2022-10-01T09:55:58.593Z,3.74
2022-10-01T09:58:43.779Z,3.53
2022-10-01T10:00:16.599Z,5.16
2022-10-01T10:01:48.012Z,4.88
2022-10-01T10:04:34.319Z,6.16
2022-10-01T10:05:57.512Z,5.11
2022-10-01T10:07:20.286Z,5.04
2022-10-01T10:08:43.490Z,4.20
2022-10-01T10:10:27.979Z,4.16
2022-10-01T10:11:52.106Z,6.02
2022-10-01T10:13:31.486Z,5.42
2022-10-01T10:14:53.675Z,2.94
2022-10-01T10:17:40.769Z,4.33
2022-10-01T10:19:08.292Z,3.67
2022-10-01T10:20:35.313Z,4.30
2022-10-01T10:21:57.638Z,4.90
2022-10-01T10:24:35.569Z,2.44
2022-10-01T10:27:23.656Z,3.94
2022-10-01T10:28:49.194Z,3.22
2022-10-01T10:30:15.434Z,3.69
2022-10-01T10:33:04.273Z,2.73
2022-10-01T10:35:46.462Z,3.58
2022-10-01T10:38:23.073Z,2.37
2022-10-01T10:39:51.092Z,4.24
2022-10-01T10:42:30.136Z,3.08
2022-10-01T10:45:13.405Z,2.74
2022-10-01T10:46:40.800Z,6.24
2022-10-01T10:48:11.194Z,4.28
2022-10-01T10:49:33.782Z,3.76
2022-10-01T10:51:06.269Z,3.52
2022-10-01T10:52:35.694Z,5.04
2022-10-01T10:54:03.934Z,3.00
2022-10-01T10:55:28.486Z,3.74
2022-10-01T10:57:12.728Z,3.93
2022-10-01T10:58:35.162Z,4.53
2022-10-01T11:00:02.007Z,3.67
2022-10-01T11:01:27.760Z,4.26
2022-10-01T11:03:03.073Z,3.10
2022-10-01T11:04:30.981Z,3.87
2022-10-01T11:05:52.493Z,3.51
2022-10-01T11:07:13.755Z,4.11
2022-10-01T11:08:35.192Z,3.41
2022-10-01T11:10:08.949Z,4.66
2022-10-01T11:11:50.553Z,3.75
2022-10-01T11:13:18.003Z,2.88
2022-10-01T11:14:54.595Z,2.91
2022-10-01T11:16:24.136Z,2.79
2022-10-01T11:18:04.285Z,4.51
2022-10-01T11:19:31.983Z,4.09
2022-10-01T11:21:27.524Z,3.87
2022-10-01T11:22:58.115Z,3.52
2022-10-01T11:24:57.009Z,3.33
2022-10-01T11:26:25.631Z,4.35
2022-10-01T11:29:39.391Z,3.72
2022-10-01T11:32:44.392Z,2.38
2022-10-01T11:34:24.541Z,3.70
2022-10-01T11:37:17.246Z,4.73
2022-10-01T11:38:45.002Z,3.44
2022-10-01T11:40:25.866Z,4.55
2022-10-01T11:44:23.514Z,4.17
2022-10-01T11:45:46.612Z,4.06
2022-10-01T11:47:22.786Z,4.57
2022-10-01T11:48:55.399Z,4.22
2022-10-01T11:50:39.079Z,3.87
2022-10-01T11:53:27.997Z,4.47
2022-10-01T11:54:56.418Z,2.62
2022-10-01T11:56:24.113Z,2.79
2022-10-01T11:57:45.905Z,2.12
2022-10-01T11:59:19.538Z,1.89
2022-10-01T12:00:43.305Z,1.92
2022-10-01T12:02:20.697Z,3.39
2022-10-01T12:03:54.713Z,2.93
2022-10-01T12:05:18.874Z,3.63
2022-10-01T12:06:50.482Z,3.68
2022-10-01T12:08:27.107Z,2.47
2022-10-01T12:10:04.469Z,3.80
2022-10-01T12:11:29.239Z,4.18
2022-10-01T12:13:03.089Z,3.37
2022-10-01T12:14:34.307Z,3.34
2022-10-01T12:15:59.756Z,2.87
2022-10-01T12:17:26.884Z,5.17
2022-10-01T12:19:29.249Z,2.76
2022-10-01T12:20:55.161Z,2.53
2022-10-01T12:22:24.185Z,1.75
2022-10-01T12:23:46.891Z,4.29
2022-10-01T12:25:14.167Z,4.37
2022-10-01T12:26:43.074Z,3.52
2022-10-01T12:29:30.756Z,2.36
2022-10-01T12:30:54.954Z,2.46
2022-10-01T12:32:20.038Z,4.65
2022-10-01T12:35:45.094Z,3.99
2022-10-01T12:37:22.927Z,4.08
2022-10-01T12:39:24.683Z,4.85
2022-10-01T12:40:51.987Z,4.42
2022-10-01T12:42:41.028Z,3.09
2022-10-01T12:45:29.862Z,6.24
2022-10-01T12:47:06.878Z,4.82
2022-10-01T12:48:51.066Z,4.52
2022-10-01T12:50:33.736Z,4.39
2022-10-01T12:52:19.926Z,5.66
2022-10-01T12:54:01.945Z,5.80
2022-10-01T12:55:27.056Z,4.50
2022-10-01T12:56:57.831Z,4.37
2022-10-01T12:58:23.079Z,3.78
2022-10-01T13:02:01.792Z,3.58
2022-10-01T13:03:44.809Z,4.72
2022-10-01T13:05:18.608Z,4.81
2022-10-01T13:08:14.095Z,5.42
2022-10-01T13:09:46.609Z,4.72
2022-10-01T13:12:45.038Z,5.66
2022-10-01T13:15:28.156Z,4.04
2022-10-01T13:18:39.364Z,5.34
2022-10-01T13:20:05.576Z,6.54
2022-10-01T13:21:33.421Z,7.93
2022-10-01T13:23:04.416Z,9.23
2022-10-01T13:24:51.198Z,8.51
2022-10-01T13:26:32.108Z,5.29
2022-10-01T13:28:07.149Z,7.69
2022-10-01T13:29:44.681Z,5.53
2022-10-01T13:31:14.154Z,6.49
2022-10-01T13:32:59.038Z,6.34
2022-10-01T13:34:26.798Z,8.45
2022-10-01T13:37:31.008Z,7.68
2022-10-01T13:38:52.940Z,9.82
2022-10-01T13:41:44.745Z,8.41
2022-10-01T13:43:17.403Z,10.99
2022-10-01T13:44:38.537Z,6.93
2022-10-01T13:46:07.263Z,9.88
2022-10-01T13:47:28.505Z,8.27
2022-10-01T13:48:49.842Z,8.53
2022-10-01T13:50:22.060Z,7.60
2022-10-01T13:51:43.469Z,9.49
2022-10-01T13:53:16.087Z,8.89
2022-10-01T13:54:39.461Z,7.91
2022-10-01T13:56:00.920Z,10.37
2022-10-01T13:57:26.238Z,11.03
2022-10-01T13:58:48.185Z,18.08
2022-10-01T14:00:16.272Z,12.84
2022-10-01T14:03:07.817Z,9.97
2022-10-01T14:04:39.420Z,7.39
2022-10-01T14:06:02.302Z,10.07
2022-10-01T14:07:25.657Z,9.33
2022-10-01T14:09:06.382Z,10.11
2022-10-01T14:10:34.087Z,8.83
2022-10-01T14:11:59.252Z,6.91
2022-10-01T14:13:21.808Z,9.09
2022-10-01T14:16:06.526Z,7.28
2022-10-01T14:17:29.126Z,8.93
2022-10-01T14:18:50.142Z,10.49
2022-10-01T14:20:23.924Z,7.82
2022-10-01T14:21:49.325Z,7.94
2022-10-01T14:23:12.068Z,11.06
2022-10-01T14:24:52.592Z,11.95
2022-10-01T14:26:23.258Z,7.83
2022-10-01T14:28:08.051Z,10.86
2022-10-01T14:29:45.409Z,9.43
2022-10-01T14:31:19.383Z,8.03
2022-10-01T14:34:20.102Z,10.51
2022-10-01T14:35:47.035Z,9.08
2022-10-01T14:37:08.037Z,8.83
2022-10-01T14:38:29.275Z,9.41
2022-10-01T14:40:04.868Z,7.42
2022-10-01T14:41:27.073Z,9.93
2022-10-01T14:43:01.660Z,8.58
2022-10-01T14:44:28.002Z,9.36
2022-10-01T14:47:18.336Z,6.54
2022-10-01T14:48:39.724Z,10.04
2022-10-01T14:50:12.005Z,10.76
2022-10-01T14:51:37.141Z,10.83
2022-10-01T14:52:58.267Z,8.74
2022-10-01T14:54:20.542Z,11.60
2022-10-01T14:55:42.851Z,9.61
2022-10-01T14:57:12.488Z,12.12
2022-10-01T14:58:39.776Z,9.10
2022-10-01T15:00:04.924Z,11.59
2022-10-01T15:01:28.656Z,15.96
2022-10-01T15:04:20.796Z,13.32
2022-10-01T15:05:42.952Z,11.28
2022-10-01T15:07:06.182Z,12.71
2022-10-01T15:08:41.905Z,12.78
2022-10-01T15:10:06.925Z,11.91
2022-10-01T15:11:29.075Z,12.11
2022-10-01T15:12:51.078Z,10.53
2022-10-01T15:14:23.287Z,13.52
2022-10-01T15:15:44.465Z,15.48
2022-10-01T15:17:06.711Z,13.78
2022-10-01T15:18:28.200Z,14.58
2022-10-01T15:19:50.953Z,13.34
2022-10-01T15:21:15.535Z,13.96
2022-10-01T15:22:37.009Z,14.62
2022-10-01T15:23:58.173Z,9.55
2022-10-01T15:25:21.170Z,9.09
2022-10-01T15:26:42.364Z,9.49
2022-10-01T15:28:14.977Z,8.83
2022-10-01T15:29:37.249Z,10.72
2022-10-01T15:31:03.447Z,10.58
2022-10-01T15:32:25.612Z,11.34
2022-10-01T15:33:46.966Z,9.32
2022-10-01T15:35:09.822Z,12.03
2022-10-01T15:36:31.389Z,10.58
2022-10-01T15:37:53.048Z,9.28
2022-10-01T15:39:32.340Z,8.75
2022-10-01T15:40:59.079Z,8.87
2022-10-01T15:43:43.276Z,7.85
2022-10-01T15:45:10.537Z,10.32
2022-10-01T15:46:32.410Z,9.39
2022-10-01T15:47:54.105Z,8.68
2022-10-01T15:50:31.894Z,9.74
2022-10-01T15:51:59.766Z,8.28
2022-10-01T15:53:21.461Z,7.58
2022-10-01T15:54:42.983Z,7.52
2022-10-01T15:56:09.220Z,10.89
2022-10-01T15:57:30.356Z,8.63
2022-10-01T15:59:00.166Z,8.53
2022-10-01T16:00:26.404Z,11.35
2022-10-01T16:01:47.813Z,11.06
2022-10-01T16:03:23.562Z,12.58
2022-10-01T16:04:45.813Z,9.39
2022-10-01T16:06:09.398Z,9.18
2022-10-01T16:07:30.743Z,11.82
2022-10-01T16:20:50.288Z,10.89
2022-10-01T16:23:42.088Z,9.04
2022-10-01T16:25:08.000Z,7.68
2022-10-01T16:26:37.147Z,9.42
2022-10-01T16:28:02.439Z,8.81
2022-10-01T16:29:24.024Z,11.93
2022-10-01T16:30:46.490Z,11.61
2022-10-01T16:32:10.500Z,10.04
2022-10-01T16:33:31.703Z,11.99
2022-10-01T16:34:52.990Z,11.68
2022-10-01T16:36:16.503Z,10.60
2022-10-01T16:37:37.740Z,11.21
2022-10-01T16:38:58.986Z,11.47
2022-10-01T16:40:21.838Z,9.52
2022-10-01T16:43:04.755Z,14.59
2022-10-01T16:44:26.100Z,16.11
2022-10-01T16:45:48.444Z,16.56
2022-10-01T16:47:10.973Z,12.11
2022-10-01T16:48:32.177Z,11.95
2022-10-01T16:49:53.597Z,10.97
2022-10-01T16:52:54.470Z,10.13
2022-10-01T16:54:18.838Z,12.06
2022-10-01T16:55:40.911Z,9.01
2022-10-01T16:57:02.696Z,10.77
2022-10-01T16:58:24.078Z,10.17
2022-10-01T16:59:45.441Z,9.89
2022-10-01T17:01:10.961Z,11.62
2022-10-01T17:02:33.139Z,11.05
2022-10-01T17:03:54.151Z,11.79
2022-10-01T17:05:19.932Z,12.53
2022-10-01T17:06:42.440Z,10.97
2022-10-01T17:08:03.969Z,13.14
2022-10-01T17:09:25.188Z,13.79
2022-10-01T17:10:47.340Z,12.25
2022-10-01T17:12:08.970Z,11.94
2022-10-01T17:13:31.781Z,14.12
2022-10-01T17:14:52.983Z,16.18
2022-10-01T17:16:14.823Z,13.46
2022-10-01T17:17:36.096Z,13.65
2022-10-01T17:18:57.156Z,14.81
2022-10-01T17:20:18.126Z,11.12
2022-10-01T17:21:40.440Z,11.49
2022-10-01T17:23:02.226Z,9.77
2022-10-01T17:24:23.944Z,10.92
2022-10-01T17:25:45.620Z,8.22
2022-10-01T17:27:07.058Z,7.23
2022-10-01T17:28:28.596Z,8.56
2022-10-01T17:29:51.426Z,7.11
2022-10-01T17:31:17.559Z,7.19
2022-10-01T17:32:36.010Z,7.17
2022-10-01T17:33:57.635Z,8.73
2022-10-01T17:35:19.089Z,6.03
2022-10-01T17:36:40.680Z,6.71
2022-10-01T17:38:01.763Z,7.29
2022-10-01T17:39:23.290Z,5.66
2022-10-01T17:40:45.238Z,5.62
2022-10-01T17:42:06.369Z,6.47
2022-10-01T17:43:27.931Z,6.00
2022-10-01T17:44:49.597Z,6.28
2022-10-01T17:46:11.211Z,8.77
2022-10-01T17:47:33.375Z,7.48
2022-10-01T17:48:54.590Z,4.11
2022-10-01T17:51:38.339Z,6.90
2022-10-01T17:53:00.252Z,8.20
2022-10-01T17:54:21.882Z,6.06
2022-10-01T17:55:44.279Z,5.00
2022-10-01T17:57:05.640Z,6.78
2022-10-01T17:58:27.252Z,6.58
2022-10-01T17:59:48.306Z,6.99
2022-10-01T18:01:10.435Z,8.21
2022-10-01T18:02:47.039Z,9.26
2022-10-01T18:03:54.980Z,8.83
2022-10-01T18:05:16.558Z,11.64
2022-10-01T18:06:40.037Z,15.64
2022-10-01T18:08:01.538Z,9.95
2022-10-01T18:09:22.712Z,8.37
2022-10-01T18:10:45.214Z,7.02
2022-10-01T18:12:06.665Z,6.48
2022-10-01T18:13:28.230Z,5.26
2022-10-01T18:14:49.331Z,5.16
2022-10-01T18:16:15.074Z,5.75
2022-10-01T18:17:36.644Z,6.04
2022-10-01T18:20:22.094Z,5.78
2022-10-01T18:21:43.127Z,5.84
2022-10-01T18:23:04.667Z,6.75
2022-10-01T18:24:26.585Z,4.88
2022-10-01T18:25:47.853Z,4.95
2022-10-01T18:27:09.404Z,5.94
2022-10-01T18:28:31.048Z,6.08
2022-10-01T18:29:52.649Z,5.43
2022-10-01T18:31:16.688Z,5.19
2022-10-01T18:32:44.425Z,4.76
2022-10-01T18:48:17.390Z,24.48
2022-10-01T18:50:08.034Z,21.55
2022-10-01T18:51:58.416Z,15.17
2022-10-01T18:53:29.266Z,13.09
2022-10-01T18:55:24.679Z,6.82
2022-10-01T18:57:06.847Z,5.87
2022-10-01T18:58:37.360Z,8.71
2022-10-01T19:00:11.474Z,7.60
2022-10-01T19:01:46.063Z,9.01
2022-10-01T19:03:20.071Z,7.02
2022-10-01T19:04:48.324Z,8.15
2022-10-01T19:07:51.739Z,8.70
2022-10-01T19:09:25.376Z,7.06
2022-10-01T19:10:53.343Z,7.99
2022-10-01T19:12:27.554Z,7.80
2022-10-01T19:14:01.334Z,6.29
2022-10-01T19:15:36.645Z,6.62
2022-10-01T19:17:01.906Z,5.77
2022-10-01T19:18:27.264Z,6.64
2022-10-01T19:20:15.122Z,7.77
2022-10-01T19:23:17.186Z,5.24
2022-10-01T19:26:18.184Z,12.49
2022-10-01T19:28:09.078Z,10.28
2022-10-01T19:29:43.645Z,14.84
2022-10-01T19:31:14.654Z,9.22
2022-10-01T19:32:51.853Z,8.96
2022-10-01T19:35:43.627Z,5.76
2022-10-01T19:37:08.011Z,5.60
2022-10-01T19:38:37.807Z,6.81
2022-10-01T19:41:19.500Z,9.69
2022-10-01T19:42:42.978Z,10.62
2022-10-01T19:44:15.793Z,9.52
2022-10-01T19:47:32.006Z,8.18
2022-10-01T19:48:56.074Z,8.98
2022-10-01T19:51:45.773Z,5.98
2022-10-01T19:54:26.145Z,8.81
2022-10-01T19:55:47.341Z,7.32
2022-10-01T19:57:18.548Z,5.89
2022-10-01T19:58:40.186Z,5.81
2022-10-01T20:00:03.541Z,5.54
2022-10-01T20:01:28.568Z,6.09
2022-10-01T20:03:08.038Z,7.71
2022-10-01T20:04:49.027Z,6.41
2022-10-01T20:06:17.723Z,6.71
2022-10-01T20:07:46.492Z,6.69
2022-10-01T20:09:19.511Z,6.33
2022-10-01T20:12:25.973Z,6.77
2022-10-01T20:13:53.584Z,8.22
2022-10-01T20:15:30.270Z,7.04
2022-10-01T20:16:51.676Z,7.29
2022-10-01T20:19:42.528Z,7.42
2022-10-01T20:21:13.206Z,6.04
2022-10-01T20:22:43.799Z,7.08
2022-10-01T20:26:18.875Z,14.06
2022-10-01T20:29:32.227Z,6.12
2022-10-01T20:31:00.159Z,7.50
2022-10-01T20:32:27.099Z,13.82
2022-10-01T20:35:10.956Z,9.03
2022-10-01T20:38:05.425Z,41.19
2022-10-01T20:39:35.580Z,23.72
2022-10-01T20:40:57.258Z,13.83
2022-10-01T20:42:22.722Z,36.62
2022-10-01T20:43:48.914Z,38.10
2022-10-01T20:45:21.831Z,23.62
2022-10-01T20:46:47.328Z,13.56
2022-10-01T20:48:15.324Z,46.10
2022-10-01T20:49:48.162Z,25.70
2022-10-01T20:51:15.170Z,55.73
2022-10-01T20:52:46.242Z,32.56
2022-10-01T20:55:21.830Z,27.42
2022-10-01T20:56:53.120Z,9.45
2022-10-01T20:58:23.659Z,9.35
2022-10-01T21:01:05.843Z,8.21
2022-10-01T21:02:40.053Z,8.18
2022-10-01T21:04:04.381Z,6.78
2022-10-01T21:05:28.193Z,7.06
2022-10-01T21:06:54.280Z,6.73
2022-10-01T21:08:38.105Z,8.13
2022-10-01T21:09:59.051Z,7.17
2022-10-01T21:11:29.547Z,8.88
2022-10-01T21:12:57.059Z,7.61